sensor_id;sensor_type;location;lat;lon;timestamp;P1;durP1;ratioP1;P2;durP2;ratioP2
21339;SDS011;10828;47.064;15.422;2023-08-24T10:20:56;11.30;;;6.78;;
21339;SDS011;10828;47.064;15.422;2023-08-24T10:23:27;10.48;;;6.70;;
21339;SDS011;10828;47.064;15.422;2023-08-24T10:25:54;12.77;;;6.70;;
21339;SDS011;10828;47.064;15.422;2023-08-24T10:28:21;12.52;;;6.95;;
21339;SDS011;10828;47.064;15.422;2023-08-24T10:30:50;10.30;;;6.30;;
21339;SDS011;10828;47.064;15.422;2023-08-24T10:33:17;12.20;;;6.68;;
21339;SDS011;10828;47.064;15.422;2023-08-24T10:35:44;11.43;;;6.95;;
21339;SDS011;10828;47.064;15.422;2023-08-24T10:38:27;13.52;;;6.20;;
21339;SDS011;10828;47.064;15.422;2023-08-24T10:41:01;11.02;;;6.38;;
21339;SDS011;10828;47.064;15.422;2023-08-24T10:43:37;11.43;;;6.80;;
21339;SDS011;10828;47.064;15.422;2023-08-24T10:46:24;13.45;;;6.95;;
21339;SDS011;10828;47.064;15.422;2023-08-24T10:49:10;10.07;;;6.20;;
21339;SDS011;10828;47.064;15.422;2023-08-24T10:51:42;12.05;;;6.05;;
21339;SDS011;10828;47.064;15.422;2023-08-24T10:54:09;14.57;;;6.95;;
21339;SDS011;10828;47.064;15.422;2023-08-24T10:56:36;10.63;;;6.43;;
21339;SDS011;10828;47.064;15.422;2023-08-24T10:59:16;9.70;;;6.00;;
21339;SDS011;10828;47.064;15.422;2023-08-24T11:01:54;9.77;;;6.20;;
21339;SDS011;10828;47.064;15.422;2023-08-24T11:04:20;9.88;;;5.75;;
21339;SDS011;10828;47.064;15.422;2023-08-24T11:06:58;12.48;;;5.97;;
21339;SDS011;10828;47.064;15.422;2023-08-24T11:09:24;10.77;;;6.15;;
21339;SDS011;10828;47.064;15.422;2023-08-24T11:12:01;11.57;;;6.90;;
21339;SDS011;10828;47.064;15.422;2023-08-24T11:17:34;13.15;;;6.82;;
21339;SDS011;10828;47.064;15.422;2023-08-24T11:20:00;9.68;;;6.38;;
21339;SDS011;10828;47.064;15.422;2023-08-24T11:22:26;11.18;;;6.63;;
21339;SDS011;10828;47.064;15.422;2023-08-24T11:24:52;12.27;;;6.00;;
21339;SDS011;10828;47.064;15.422;2023-08-24T11:27:19;14.75;;;6.10;;
21339;SDS011;10828;47.064;15.422;2023-08-24T11:30:04;10.50;;;6.20;;
21339;SDS011;10828;47.064;15.422;2023-08-24T11:32:31;10.27;;;6.55;;
21339;SDS011;10828;47.064;15.422;2023-08-24T11:34:57;13.25;;;6.35;;
21339;SDS011;10828;47.064;15.422;2023-08-24T11:37:22;12.68;;;6.20;;
21339;SDS011;10828;47.064;15.422;2023-08-24T11:39:48;10.30;;;6.47;;
21339;SDS011;10828;47.064;15.422;2023-08-24T11:42:14;15.10;;;6.30;;
21339;SDS011;10828;47.064;15.422;2023-08-24T11:44:46;9.90;;;6.32;;
21339;SDS011;10828;47.064;15.422;2023-08-24T11:47:14;10.43;;;6.55;;
21339;SDS011;10828;47.064;15.422;2023-08-24T11:49:40;10.85;;;6.35;;
21339;SDS011;10828;47.064;15.422;2023-08-24T11:52:06;15.80;;;7.20;;
21339;SDS011;10828;47.064;15.422;2023-08-24T11:54:32;11.07;;;6.93;;
21339;SDS011;10828;47.064;15.422;2023-08-24T11:56:58;10.05;;;6.72;;
21339;SDS011;10828;47.064;15.422;2023-08-24T11:59:23;17.33;;;6.50;;
21339;SDS011;10828;47.064;15.422;2023-08-24T12:01:50;11.75;;;7.10;;
21339;SDS011;10828;47.064;15.422;2023-08-24T12:04:18;12.20;;;7.43;;
21339;SDS011;10828;47.064;15.422;2023-08-24T12:06:44;12.48;;;6.97;;
21339;SDS011;10828;47.064;15.422;2023-08-24T12:09:10;16.08;;;7.00;;
21339;SDS011;10828;47.064;15.422;2023-08-24T12:11:36;10.05;;;6.43;;
21339;SDS011;10828;47.064;15.422;2023-08-24T12:14:03;14.40;;;6.93;;
21339;SDS011;10828;47.064;15.422;2023-08-24T12:16:33;12.73;;;6.45;;
21339;SDS011;10828;47.064;15.422;2023-08-24T12:18:59;12.50;;;7.25;;
21339;SDS011;10828;47.064;15.422;2023-08-24T12:21:28;10.95;;;6.38;;
21339;SDS011;10828;47.064;15.422;2023-08-24T12:23:58;9.90;;;6.80;;
21339;SDS011;10828;47.064;15.422;2023-08-24T12:26:31;11.48;;;7.07;;
21339;SDS011;10828;47.064;15.422;2023-08-24T12:29:04;9.73;;;6.97;;
21339;SDS011;10828;47.064;15.422;2023-08-24T12:31:31;14.45;;;7.22;;
21339;SDS011;10828;47.064;15.422;2023-08-24T12:34:07;15.07;;;7.38;;
21339;SDS011;10828;47.064;15.422;2023-08-24T12:36:37;16.38;;;8.50;;
21339;SDS011;10828;47.064;15.422;2023-08-24T12:39:04;11.82;;;7.47;;
21339;SDS011;10828;47.064;15.422;2023-08-24T12:41:32;11.05;;;7.53;;
21339;SDS011;10828;47.064;15.422;2023-08-24T12:43:57;11.32;;;7.28;;
21339;SDS011;10828;47.064;15.422;2023-08-24T12:46:23;11.30;;;7.53;;
21339;SDS011;10828;47.064;15.422;2023-08-24T12:48:50;15.30;;;7.22;;
21339;SDS011;10828;47.064;15.422;2023-08-24T12:51:16;11.32;;;7.22;;
21339;SDS011;10828;47.064;15.422;2023-08-24T12:53:42;11.77;;;7.22;;
21339;SDS011;10828;47.064;15.422;2023-08-24T12:56:08;11.80;;;8.02;;
21339;SDS011;10828;47.064;15.422;2023-08-24T12:58:34;12.63;;;7.47;;
21339;SDS011;10828;47.064;15.422;2023-08-24T13:01:00;17.27;;;8.38;;
21339;SDS011;10828;47.064;15.422;2023-08-24T13:03:25;10.98;;;7.80;;
21339;SDS011;10828;47.064;15.422;2023-08-24T13:05:51;17.48;;;8.18;;
21339;SDS011;10828;47.064;15.422;2023-08-24T13:08:17;13.45;;;8.00;;
21339;SDS011;10828;47.064;15.422;2023-08-24T13:10:42;13.73;;;8.57;;
21339;SDS011;10828;47.064;15.422;2023-08-24T13:13:08;15.98;;;8.10;;
21339;SDS011;10828;47.064;15.422;2023-08-24T13:15:34;15.88;;;7.78;;
21339;SDS011;10828;47.064;15.422;2023-08-24T13:17:59;13.95;;;8.27;;
21339;SDS011;10828;47.064;15.422;2023-08-24T13:20:25;16.10;;;8.40;;
21339;SDS011;10828;47.064;15.422;2023-08-24T13:22:51;17.38;;;7.90;;
21339;SDS011;10828;47.064;15.422;2023-08-24T13:25:17;16.13;;;7.90;;
21339;SDS011;10828;47.064;15.422;2023-08-24T13:27:43;14.98;;;8.10;;
21339;SDS011;10828;47.064;15.422;2023-08-24T13:30:09;16.23;;;8.60;;
21339;SDS011;10828;47.064;15.422;2023-08-24T13:32:36;13.13;;;8.00;;
21339;SDS011;10828;47.064;15.422;2023-08-24T13:35:05;13.68;;;8.40;;
21339;SDS011;10828;47.064;15.422;2023-08-24T13:37:31;13.40;;;8.15;;
21339;SDS011;10828;47.064;15.422;2023-08-24T13:39:58;16.23;;;8.23;;
21339;SDS011;10828;47.064;15.422;2023-08-24T13:42:25;13.40;;;7.65;;
21339;SDS011;10828;47.064;15.422;2023-08-24T13:44:50;16.33;;;7.82;;
21339;SDS011;10828;47.064;15.422;2023-08-24T13:47:18;13.23;;;7.82;;
21339;SDS011;10828;47.064;15.422;2023-08-24T13:49:46;12.77;;;7.53;;
21339;SDS011;10828;47.064;15.422;2023-08-24T13:52:12;12.32;;;7.93;;
21339;SDS011;10828;47.064;15.422;2023-08-24T13:54:38;15.18;;;8.57;;
21339;SDS011;10828;47.064;15.422;2023-08-24T13:57:03;12.95;;;7.80;;
21339;SDS011;10828;47.064;15.422;2023-08-24T13:59:30;14.52;;;8.02;;
21339;SDS011;10828;47.064;15.422;2023-08-24T14:01:58;10.63;;;7.32;;
21339;SDS011;10828;47.064;15.422;2023-08-24T14:04:23;18.88;;;8.35;;
21339;SDS011;10828;47.064;15.422;2023-08-24T14:06:49;13.88;;;7.95;;
21339;SDS011;10828;47.064;15.422;2023-08-24T14:09:14;16.25;;;8.18;;
21339;SDS011;10828;47.064;15.422;2023-08-24T14:11:42;13.65;;;8.32;;
21339;SDS011;10828;47.064;15.422;2023-08-24T14:14:07;12.52;;;8.00;;
21339;SDS011;10828;47.064;15.422;2023-08-24T14:16:34;24.55;;;9.45;;
21339;SDS011;10828;47.064;15.422;2023-08-24T14:18:59;14.27;;;8.82;;
21339;SDS011;10828;47.064;15.422;2023-08-24T14:21:25;13.77;;;7.97;;
21339;SDS011;10828;47.064;15.422;2023-08-24T14:23:51;14.00;;;8.85;;
21339;SDS011;10828;47.064;15.422;2023-08-24T14:26:17;19.70;;;8.88;;
21339;SDS011;10828;47.064;15.422;2023-08-24T14:28:47;19.10;;;9.77;;
21339;SDS011;10828;47.064;15.422;2023-08-24T14:31:18;15.40;;;9.00;;
21339;SDS011;10828;47.064;15.422;2023-08-24T14:33:44;21.73;;;9.55;;
21339;SDS011;10828;47.064;15.422;2023-08-24T14:36:11;15.75;;;8.30;;
21339;SDS011;10828;47.064;15.422;2023-08-24T14:38:38;17.13;;;8.80;;
21339;SDS011;10828;47.064;15.422;2023-08-24T14:41:09;13.63;;;8.05;;
21339;SDS011;10828;47.064;15.422;2023-08-24T14:43:54;14.98;;;8.35;;
21339;SDS011;10828;47.064;15.422;2023-08-24T14:46:20;12.30;;;8.15;;
21339;SDS011;10828;47.064;15.422;2023-08-24T14:48:45;15.10;;;8.80;;
21339;SDS011;10828;47.064;15.422;2023-08-24T14:51:11;12.52;;;8.30;;
21339;SDS011;10828;47.064;15.422;2023-08-24T14:53:38;16.02;;;8.75;;
21339;SDS011;10828;47.064;15.422;2023-08-24T14:56:03;16.05;;;8.68;;
21339;SDS011;10828;47.064;15.422;2023-08-24T14:58:30;19.35;;;9.07;;
21339;SDS011;10828;47.064;15.422;2023-08-24T15:01:00;12.98;;;8.93;;
21339;SDS011;10828;47.064;15.422;2023-08-24T15:03:28;11.68;;;7.90;;
21339;SDS011;10828;47.064;15.422;2023-08-24T15:06:00;17.95;;;9.27;;
21339;SDS011;10828;47.064;15.422;2023-08-24T15:08:43;17.33;;;8.75;;
21339;SDS011;10828;47.064;15.422;2023-08-24T15:11:13;21.67;;;9.65;;
21339;SDS011;10828;47.064;15.422;2023-08-24T15:13:39;13.48;;;9.18;;
21339;SDS011;10828;47.064;15.422;2023-08-24T15:16:07;15.40;;;9.13;;
21339;SDS011;10828;47.064;15.422;2023-08-24T15:18:34;17.65;;;9.85;;
21339;SDS011;10828;47.064;15.422;2023-08-24T15:21:01;15.20;;;8.90;;
21339;SDS011;10828;47.064;15.422;2023-08-24T15:23:31;15.70;;;8.90;;
21339;SDS011;10828;47.064;15.422;2023-08-24T15:25:57;12.57;;;9.27;;
21339;SDS011;10828;47.064;15.422;2023-08-24T15:28:24;15.55;;;8.77;;
21339;SDS011;10828;47.064;15.422;2023-08-24T15:30:50;16.23;;;9.63;;
21339;SDS011;10828;47.064;15.422;2023-08-24T15:33:17;16.60;;;9.23;;
21339;SDS011;10828;47.064;15.422;2023-08-24T15:35:44;17.38;;;9.23;;
21339;SDS011;10828;47.064;15.422;2023-08-24T15:38:10;14.75;;;9.45;;
21339;SDS011;10828;47.064;15.422;2023-08-24T15:40:37;16.27;;;9.45;;
21339;SDS011;10828;47.064;15.422;2023-08-24T15:43:04;15.63;;;9.63;;
21339;SDS011;10828;47.064;15.422;2023-08-24T15:45:31;16.45;;;9.88;;
21339;SDS011;10828;47.064;15.422;2023-08-24T15:47:57;15.13;;;8.88;;
21339;SDS011;10828;47.064;15.422;2023-08-24T15:50:23;16.30;;;8.93;;
21339;SDS011;10828;47.064;15.422;2023-08-24T15:52:49;20.95;;;10.13;;
21339;SDS011;10828;47.064;15.422;2023-08-24T15:55:15;14.70;;;9.40;;
21339;SDS011;10828;47.064;15.422;2023-08-24T15:57:42;17.77;;;8.88;;
21339;SDS011;10828;47.064;15.422;2023-08-24T16:00:07;17.08;;;9.52;;
21339;SDS011;10828;47.064;15.422;2023-08-24T16:02:39;18.95;;;10.32;;
21339;SDS011;10828;47.064;15.422;2023-08-24T16:05:05;17.52;;;9.57;;
21339;SDS011;10828;47.064;15.422;2023-08-24T16:07:31;14.90;;;9.23;;
21339;SDS011;10828;47.064;15.422;2023-08-24T16:09:57;16.35;;;9.45;;
21339;SDS011;10828;47.064;15.422;2023-08-24T16:12:23;18.42;;;9.45;;
21339;SDS011;10828;47.064;15.422;2023-08-24T16:14:49;18.05;;;9.45;;
21339;SDS011;10828;47.064;15.422;2023-08-24T16:17:14;14.82;;;8.77;;
21339;SDS011;10828;47.064;15.422;2023-08-24T16:19:41;19.08;;;9.60;;
21339;SDS011;10828;47.064;15.422;2023-08-24T16:22:09;15.63;;;9.02;;
21339;SDS011;10828;47.064;15.422;2023-08-24T16:24:34;14.63;;;8.68;;
21339;SDS011;10828;47.064;15.422;2023-08-24T16:27:01;16.45;;;9.13;;
21339;SDS011;10828;47.064;15.422;2023-08-24T16:29:27;17.17;;;8.90;;
21339;SDS011;10828;47.064;15.422;2023-08-24T16:31:53;20.30;;;9.70;;
21339;SDS011;10828;47.064;15.422;2023-08-24T16:34:18;14.25;;;9.15;;
21339;SDS011;10828;47.064;15.422;2023-08-24T16:36:44;16.52;;;8.23;;
21339;SDS011;10828;47.064;15.422;2023-08-24T16:39:11;13.38;;;8.57;;
21339;SDS011;10828;47.064;15.422;2023-08-24T16:41:36;15.23;;;9.13;;
21339;SDS011;10828;47.064;15.422;2023-08-24T16:44:02;14.57;;;8.82;;
21339;SDS011;10828;47.064;15.422;2023-08-24T16:46:28;13.50;;;9.05;;
21339;SDS011;10828;47.064;15.422;2023-08-24T16:48:54;20.27;;;9.70;;
21339;SDS011;10828;47.064;15.422;2023-08-24T16:51:22;16.83;;;9.00;;
21339;SDS011;10828;47.064;15.422;2023-08-24T16:53:49;16.00;;;9.00;;
21339;SDS011;10828;47.064;15.422;2023-08-24T16:56:37;14.32;;;8.48;;
21339;SDS011;10828;47.064;15.422;2023-08-24T16:59:05;15.23;;;9.75;;
21339;SDS011;10828;47.064;15.422;2023-08-24T17:01:31;14.25;;;8.77;;
21339;SDS011;10828;47.064;15.422;2023-08-24T17:03:57;14.65;;;9.20;;
21339;SDS011;10828;47.064;15.422;2023-08-24T17:06:23;12.95;;;8.98;;
21339;SDS011;10828;47.064;15.422;2023-08-24T17:08:49;18.55;;;9.75;;
21339;SDS011;10828;47.064;15.422;2023-08-24T17:11:15;16.33;;;9.60;;
21339;SDS011;10828;47.064;15.422;2023-08-24T17:13:41;13.40;;;9.20;;
21339;SDS011;10828;47.064;15.422;2023-08-24T17:16:06;15.23;;;9.20;;
21339;SDS011;10828;47.064;15.422;2023-08-24T17:18:32;18.58;;;9.80;;
21339;SDS011;10828;47.064;15.422;2023-08-24T17:20:58;17.50;;;9.80;;
21339;SDS011;10828;47.064;15.422;2023-08-24T17:23:28;16.70;;;10.23;;
21339;SDS011;10828;47.064;15.422;2023-08-24T17:25:53;15.02;;;9.75;;
21339;SDS011;10828;47.064;15.422;2023-08-24T17:28:20;15.85;;;9.73;;
21339;SDS011;10828;47.064;15.422;2023-08-24T17:30:46;16.30;;;9.32;;
21339;SDS011;10828;47.064;15.422;2023-08-24T17:33:19;14.75;;;10.00;;
21339;SDS011;10828;47.064;15.422;2023-08-24T17:35:46;15.05;;;10.02;;
21339;SDS011;10828;47.064;15.422;2023-08-24T17:38:12;21.90;;;10.65;;
21339;SDS011;10828;47.064;15.422;2023-08-24T17:40:38;16.63;;;10.07;;
21339;SDS011;10828;47.064;15.422;2023-08-24T17:43:05;15.48;;;9.82;;
21339;SDS011;10828;47.064;15.422;2023-08-24T17:45:31;26.40;;;9.90;;
21339;SDS011;10828;47.064;15.422;2023-08-24T17:47:57;14.95;;;10.27;;
21339;SDS011;10828;47.064;15.422;2023-08-24T17:50:23;24.17;;;9.77;;
21339;SDS011;10828;47.064;15.422;2023-08-24T17:52:49;18.70;;;10.40;;
21339;SDS011;10828;47.064;15.422;2023-08-24T17:55:16;20.52;;;9.57;;
21339;SDS011;10828;47.064;15.422;2023-08-24T17:57:42;16.98;;;9.70;;
21339;SDS011;10828;47.064;15.422;2023-08-24T18:00:09;22.30;;;9.73;;
21339;SDS011;10828;47.064;15.422;2023-08-24T18:02:35;16.05;;;9.00;;
21339;SDS011;10828;47.064;15.422;2023-08-24T18:05:02;18.77;;;9.68;;
21339;SDS011;10828;47.064;15.422;2023-08-24T18:07:31;17.50;;;9.20;;
21339;SDS011;10828;47.064;15.422;2023-08-24T18:09:58;17.15;;;9.60;;
21339;SDS011;10828;47.064;15.422;2023-08-24T18:12:24;17.85;;;9.52;;
21339;SDS011;10828;47.064;15.422;2023-08-24T18:14:50;17.77;;;10.65;;
